Sycamore Park, Indiana
Current Conditions -  °F | °C
As of 3:53 PM on Sunday 23 Nov 2014 (Local Time) from KHUF Reporting Station
Moderate Rain Moderate Rain  
Wind Chill: 11°   Ceiling: 500
Heat Index: 11°   Visibility: 3mi
Dew Point: 11°   Wind: 6mph
Humidity: 97%   Direction: 120°ESE
Pressure: 29.49"   Gusts: NA
Location:  39.5107°N, 87.4772°W
Report Text: KHUF 232053Z 12005KT 3SM RA BR BKN005 OVC009 11/11 A2949 RMK AO2 SLP987 6//// T01110106 56056 PNO $
Loading
Personal Weather Stations






























Interactive Weather Map New forecast layout! Learn more

10-Day Weather Forecast

Advertisements
Track Severe Weather on mobile